Time;durP1;ratioP1;P1;durP2;ratioP2;P2;SDS_P1;SDS_P2;PMS_P1;PMS_P2;Temp;Humidity;BMP_temperature;BMP_pressure;BME280_temperature;BME280_humidity;BME280_pressure;Samples;Min_cycle;Max_cycle;Signal;HPM_P1;HPM_P2
2022/10/12 00:01:17;;;;;;;3.47;1.58;;;6.30;99.90;;;;;;5091320;28;20028;-59
2022/10/12 00:03:42;;;;;;;3.45;1.48;;;6.40;99.90;;;;;;5092021;28;20457;-51
2022/10/12 00:06:14;;;;;;;3.33;1.50;;;6.40;99.90;;;;;;5092089;28;20457;-53
2022/10/12 00:08:41;;;;;;;3.17;1.67;;;6.30;99.90;;;;;;5091401;28;20118;-56
2022/10/12 00:11:14;;;;;;;3.78;1.60;;;6.30;99.90;;;;;;5090738;28;20016;-54
2022/10/12 00:13:40;;;;;;;3.53;1.58;;;6.30;99.90;;;;;;5091634;28;20035;-52
2022/10/12 00:16:08;;;;;;;2.20;1.38;;;6.30;99.90;;;;;;5091211;28;20024;-57
2022/10/12 00:18:34;;;;;;;1.58;1.17;;;6.30;99.90;;;;;;5091899;28;20479;-51
2022/10/12 00:21:00;;;;;;;2.63;1.40;;;6.20;99.90;;;;;;5090272;28;20052;-54
2022/10/12 00:23:26;;;;;;;2.38;1.48;;;6.20;99.90;;;;;;5091110;28;20023;-53
2022/10/12 00:25:52;;;;;;;5.45;1.52;;;6.10;99.90;;;;;;5091315;28;20028;-54
2022/10/12 00:28:17;;;;;;;3.75;1.60;;;6.10;99.90;;;;;;5091447;28;20048;-51
2022/10/12 00:30:43;;;;;;;3.83;1.60;;;6.10;99.90;;;;;;5090561;28;20028;-48
2022/10/12 00:33:08;;;;;;;7.22;2.00;;;6.10;99.90;;;;;;5091589;28;20016;-49
2022/10/12 00:35:34;;;;;;;5.75;1.77;;;6.00;99.90;;;;;;5091719;28;20465;-50
2022/10/12 00:37:59;;;;;;;3.40;1.58;;;6.00;99.90;;;;;;5090463;28;20377;-54
2022/10/12 00:40:25;;;;;;;3.28;1.50;;;6.00;99.90;;;;;;5091234;28;20058;-52
2022/10/12 00:42:51;;;;;;;2.55;1.52;;;6.00;99.90;;;;;;5091080;28;20103;-47
2022/10/12 00:45:16;;;;;;;3.50;1.50;;;6.00;99.90;;;;;;5089319;28;20481;-56
2022/10/12 00:47:55;;;;;;;3.13;1.73;;;6.00;99.90;;;;;;5090954;28;20412;-52
2022/10/12 00:50:26;;;;;;;3.65;1.90;;;6.00;99.90;;;;;;5090985;28;20024;-52
2022/10/12 00:53:08;;;;;;;4.88;1.70;;;6.00;99.90;;;;;;5091071;28;20108;-52
2022/10/12 00:55:39;;;;;;;3.38;1.70;;;5.90;99.90;;;;;;5091305;28;20027;-53
2022/10/12 00:58:07;;;;;;;9.40;1.70;;;5.90;99.90;;;;;;5090675;28;20028;-49
2022/10/12 01:00:34;;;;;;;2.45;1.38;;;5.90;99.90;;;;;;5091348;28;20036;-53
2022/10/12 01:03:00;;;;;;;2.75;1.42;;;5.80;99.90;;;;;;5091030;28;20110;-47
2022/10/12 01:05:26;;;;;;;4.18;1.98;;;5.80;99.90;;;;;;5090805;28;20032;-51
2022/10/12 01:07:51;;;;;;;2.58;1.30;;;5.70;99.90;;;;;;5090976;28;20023;-50
2022/10/12 01:10:17;;;;;;;2.85;1.30;;;5.70;99.90;;;;;;5091058;28;20020;-53
2022/10/12 01:12:46;;;;;;;3.92;1.52;;;5.60;99.90;;;;;;5090291;28;20062;-55
2022/10/12 01:15:12;;;;;;;2.35;1.55;;;5.60;99.90;;;;;;5090696;28;20026;-53
2022/10/12 01:17:58;;;;;;;3.08;1.40;;;5.60;99.90;;;;;;5090926;28;20099;-49
2022/10/12 01:20:46;;;;;;;4.45;1.42;;;5.60;99.90;;;;;;5097665;28;20048;-56
2022/10/12 01:23:43;;;;;;;2.78;1.60;;;5.50;99.90;;;;;;5100712;28;20020;-62
2022/10/12 01:26:39;;;;;;;3.97;1.60;;;5.50;99.90;;;;;;5050748;28;20722;-61
2022/10/12 01:29:29;;;;;;;3.00;1.63;;;5.40;99.90;;;;;;5091340;28;20020;-65
2022/10/12 01:32:02;;;;;;;2.53;1.58;;;5.40;99.90;;;;;;5090619;28;20112;-63
2022/10/12 01:34:37;;;;;;;4.63;1.60;;;5.40;99.90;;;;;;5088501;28;20491;-63
2022/10/12 01:37:24;;;;;;;1.88;1.20;;;5.30;99.90;;;;;;5090612;28;20124;-59
2022/10/12 01:39:55;;;;;;;2.95;1.45;;;5.30;99.90;;;;;;5089696;28;20027;-53
2022/10/12 01:42:28;;;;;;;6.20;1.50;;;5.30;99.90;;;;;;5090697;28;20036;-58
2022/10/12 01:45:01;;;;;;;3.20;1.45;;;5.20;99.90;;;;;;5090310;28;20274;-55
2022/10/12 01:47:27;;;;;;;2.97;1.63;;;5.20;99.90;;;;;;5089976;28;20020;-62
2022/10/12 01:49:53;;;;;;;2.03;1.40;;;5.20;99.90;;;;;;5090372;28;20416;-53
2022/10/12 01:52:27;;;;;;;3.83;1.80;;;5.20;99.90;;;;;;5089226;28;20064;-57
2022/10/12 01:55:02;;;;;;;4.85;1.48;;;5.20;99.90;;;;;;5089942;28;20020;-56
2022/10/12 01:57:49;;;;;;;3.97;1.70;;;5.20;99.90;;;;;;5090374;28;20025;-52
2022/10/12 02:00:16;;;;;;;4.43;1.73;;;5.20;99.90;;;;;;5090449;28;20099;-55
2022/10/12 02:03:03;;;;;;;2.67;1.70;;;5.20;99.90;;;;;;5090111;28;20133;-51
2022/10/12 02:05:57;;;;;;;4.07;1.98;;;5.20;99.90;;;;;;5090787;28;20024;-54
2022/10/12 02:08:29;;;;;;;4.07;1.95;;;5.20;99.90;;;;;;5089813;28;20028;-56
2022/10/12 02:11:09;;;;;;;2.95;1.50;;;5.20;99.90;;;;;;5090343;28;20028;-51
2022/10/12 02:13:44;;;;;;;3.28;1.60;;;5.20;99.90;;;;;;5090557;28;20597;-53
2022/10/12 02:16:13;;;;;;;5.07;2.00;;;5.30;99.90;;;;;;5089715;28;20060;-56
2022/10/12 02:18:44;;;;;;;4.03;1.88;;;5.30;99.90;;;;;;5089807;28;20111;-51
2022/10/12 02:21:13;;;;;;;3.72;1.77;;;5.30;99.90;;;;;;5089767;28;20055;-52
2022/10/12 02:23:39;;;;;;;8.18;1.95;;;5.30;99.90;;;;;;5089605;28;20500;-54
2022/10/12 02:26:06;;;;;;;3.80;2.17;;;5.30;99.90;;;;;;5090213;28;20028;-53
2022/10/12 02:28:34;;;;;;;2.53;1.85;;;5.30;99.90;;;;;;5089912;28;20030;-51
2022/10/12 02:31:21;;;;;;;3.75;1.75;;;5.20;99.90;;;;;;5090055;28;20046;-54
2022/10/12 02:34:02;;;;;;;4.50;1.95;;;5.20;99.90;;;;;;5088745;28;20031;-51
2022/10/12 02:36:38;;;;;;;6.38;1.70;;;5.20;99.90;;;;;;5089536;28;20020;-53
2022/10/12 02:39:19;;;;;;;3.90;1.95;;;5.10;99.90;;;;;;5090208;28;20090;-52
2022/10/12 02:41:46;;;;;;;;;;;5.10;99.90;;;;;;5090429;28;20032;-54
2022/10/12 02:44:18;;;;;;;8.10;2.22;;;5.00;99.90;;;;;;5090878;28;19953;-49
2022/10/12 02:46:46;;;;;;;4.95;1.92;;;5.00;99.90;;;;;;5093687;28;20048;-57
2022/10/12 02:49:13;;;;;;;4.68;1.90;;;4.90;99.90;;;;;;5093541;28;20020;-53
2022/10/12 02:51:39;;;;;;;2.72;1.60;;;4.90;99.90;;;;;;5092838;28;20016;-54
2022/10/12 02:54:05;;;;;;;5.00;1.92;;;4.90;99.90;;;;;;5093431;28;20028;-49
2022/10/12 02:56:31;;;;;;;2.22;1.45;;;4.90;99.90;;;;;;5093352;28;20027;-54
2022/10/12 02:58:57;;;;;;;4.18;1.80;;;4.90;99.90;;;;;;5092490;28;20035;-52
2022/10/12 03:01:22;;;;;;;2.58;1.65;;;4.90;99.90;;;;;;5093450;28;20032;-51
2022/10/12 03:03:48;;;;;;;2.95;1.50;;;4.80;99.90;;;;;;5092314;28;20039;-54
2022/10/12 03:06:13;;;;;;;2.45;1.45;;;4.80;99.90;;;;;;5093335;28;20027;-53
2022/10/12 03:08:39;;;;;;;1.58;1.20;;;4.80;99.90;;;;;;5093148;28;20020;-49
2022/10/12 03:11:07;;;;;;;4.82;1.63;;;4.70;99.90;;;;;;5091282;28;20046;-50
2022/10/12 03:13:33;;;;;;;5.72;1.80;;;4.70;99.90;;;;;;5093212;28;20046;-54
2022/10/12 03:16:03;;;;;;;2.75;2.00;;;4.70;99.90;;;;;;5092988;28;20464;-52
2022/10/12 03:18:29;;;;;;;7.22;2.25;;;4.70;99.90;;;;;;5092074;28;20056;-47
2022/10/12 03:20:55;;;;;;;5.40;2.45;;;4.70;99.90;;;;;;5092281;28;20055;-49
2022/10/12 03:23:21;;;;;;;7.13;2.00;;;4.60;99.90;;;;;;5093211;28;20020;-48
2022/10/12 03:25:46;;;;;;;5.18;2.08;;;4.70;99.90;;;;;;5092153;28;20031;-53
2022/10/12 03:28:12;;;;;;;3.60;2.13;;;4.70;99.90;;;;;;5092926;28;20020;-54
2022/10/12 03:30:37;;;;;;;4.07;2.05;;;4.70;99.90;;;;;;5093683;28;20114;-56
2022/10/12 03:33:03;;;;;;;3.47;2.00;;;4.70;99.90;;;;;;5092279;28;20461;-53
2022/10/12 03:35:28;;;;;;;3.20;1.88;;;4.70;99.90;;;;;;5092986;28;20362;-56
2022/10/12 03:37:54;;;;;;;3.75;1.90;;;4.70;99.90;;;;;;5092380;28;20056;-59
2022/10/12 03:40:19;;;;;;;4.00;2.30;;;4.70;99.90;;;;;;5092303;28;20028;-60
2022/10/12 03:42:45;;;;;;;5.20;2.00;;;4.60;99.90;;;;;;5092664;28;20098;-59
2022/10/12 03:45:11;;;;;;;5.75;2.25;;;4.60;99.90;;;;;;5092647;28;20016;-60
2022/10/12 03:47:37;;;;;;;4.22;2.22;;;4.50;99.90;;;;;;5091752;28;20059;-60
2022/10/12 03:50:03;;;;;;;4.28;1.90;;;4.50;99.90;;;;;;5092695;28;20110;-54
2022/10/12 03:52:29;;;;;;;5.68;1.98;;;4.50;99.90;;;;;;5092469;28;20475;-64
2022/10/12 03:54:54;;;;;;;7.57;2.20;;;4.40;99.90;;;;;;5091868;28;20042;-61
2022/10/12 03:57:20;;;;;;;3.63;1.95;;;4.40;99.90;;;;;;5092523;28;20532;-56
2022/10/12 03:59:45;;;;;;;3.15;1.95;;;4.40;99.90;;;;;;5092096;28;20031;-55
2022/10/12 04:02:11;;;;;;;3.30;2.00;;;4.30;99.90;;;;;;5091452;28;20036;-59
2022/10/12 04:04:36;;;;;;;3.58;2.08;;;4.30;99.90;;;;;;5091460;28;20021;-56
2022/10/12 04:07:02;;;;;;;2.72;1.75;;;4.30;99.90;;;;;;5091323;28;20055;-65
2022/10/12 04:09:28;;;;;;;4.05;2.00;;;4.20;99.90;;;;;;5092074;28;20016;-65
2022/10/12 04:11:53;;;;;;;3.80;2.03;;;4.20;99.90;;;;;;5091428;28;20454;-55
2022/10/12 04:14:19;;;;;;;3.58;2.08;;;4.20;99.90;;;;;;5091516;28;20020;-57
2022/10/12 04:16:44;;;;;;;6.28;2.22;;;4.20;99.90;;;;;;5091600;28;20480;-52
2022/10/12 04:19:14;;;;;;;4.43;2.30;;;4.20;99.90;;;;;;5091462;28;20392;-53
2022/10/12 04:21:39;;;;;;;4.72;2.78;;;4.10;99.90;;;;;;5090768;28;20524;-53
2022/10/12 04:24:05;;;;;;;6.00;2.45;;;4.10;99.90;;;;;;5091874;28;20244;-58
2022/10/12 04:26:31;;;;;;;4.55;2.63;;;4.10;99.90;;;;;;5091644;28;20479;-54
2022/10/12 04:28:56;;;;;;;5.15;2.55;;;4.00;99.90;;;;;;5090796;28;20012;-59
2022/10/12 04:31:22;;;;;;;5.18;2.47;;;4.00;99.90;;;;;;5091862;28;20472;-55
2022/10/12 04:33:48;;;;;;;4.55;1.92;;;3.90;99.90;;;;;;5090183;28;20027;-55
2022/10/12 04:36:13;;;;;;;3.92;1.92;;;3.90;99.90;;;;;;5091012;28;20097;-50
2022/10/12 04:38:39;;;;;;;3.47;1.67;;;3.90;99.90;;;;;;5091032;28;20541;-51
2022/10/12 04:41:04;;;;;;;3.08;1.85;;;3.80;99.90;;;;;;5091636;28;20032;-63
2022/10/12 04:43:30;;;;;;;4.47;2.30;;;3.80;99.90;;;;;;5091001;28;20464;-46
2022/10/12 04:45:57;;;;;;;7.57;2.30;;;3.80;99.90;;;;;;5090867;28;20548;-50
2022/10/12 04:48:24;;;;;;;5.20;2.40;;;3.80;99.90;;;;;;5091353;28;20105;-55
2022/10/12 04:50:51;;;;;;;3.45;2.22;;;3.80;99.90;;;;;;5090471;28;20036;-49
2022/10/12 04:53:16;;;;;;;5.72;2.38;;;3.70;99.90;;;;;;5089875;28;20020;-48
2022/10/12 04:55:42;;;;;;;3.47;2.10;;;3.70;99.90;;;;;;5089198;28;20373;-53
2022/10/12 04:58:08;;;;;;;5.07;2.25;;;3.70;99.90;;;;;;5088807;28;20495;-54
2022/10/12 05:00:33;;;;;;;3.40;1.73;;;3.60;99.90;;;;;;5090995;28;20070;-50
2022/10/12 05:02:59;;;;;;;2.20;1.58;;;3.60;99.90;;;;;;5090635;28;20472;-52
2022/10/12 05:05:24;;;;;;;2.38;1.83;;;3.60;99.90;;;;;;5090324;28;20095;-47
2022/10/12 05:07:50;;;;;;;1.85;1.60;;;3.50;99.90;;;;;;5089993;28;20120;-57
2022/10/12 05:10:16;;;;;;;3.45;1.48;;;3.50;99.90;;;;;;5090339;28;20055;-52
2022/10/12 05:12:42;;;;;;;2.53;1.90;;;3.50;99.90;;;;;;5090547;28;20435;-56
2022/10/12 05:15:09;;;;;;;2.25;1.70;;;3.50;99.90;;;;;;5090991;28;20051;-54
2022/10/12 05:17:34;;;;;;;3.20;1.90;;;3.40;99.90;;;;;;5089986;28;20035;-49
2022/10/12 05:20:00;;;;;;;3.20;2.17;;;3.40;99.90;;;;;;5089889;28;20430;-52
2022/10/12 05:22:26;;;;;;;3.28;1.80;;;3.40;99.90;;;;;;5090742;28;20028;-53
2022/10/12 05:24:51;;;;;;;4.00;2.17;;;3.40;99.90;;;;;;5089920;28;20020;-51
2022/10/12 05:27:17;;;;;;;2.95;1.88;;;3.30;99.90;;;;;;5090738;28;20100;-53
2022/10/12 05:29:42;;;;;;;4.82;2.20;;;3.30;99.90;;;;;;5090513;28;20494;-52
2022/10/12 05:32:08;;;;;;;2.33;1.85;;;3.30;99.90;;;;;;5089997;28;20369;-47
2022/10/12 05:34:33;;;;;;;2.97;2.13;;;3.30;99.90;;;;;;5090686;28;20052;-53
2022/10/12 05:37:00;;;;;;;3.60;2.15;;;3.30;99.90;;;;;;5090706;28;20024;-50
2022/10/12 05:39:25;;;;;;;5.03;1.85;;;3.20;99.90;;;;;;5091366;28;20032;-60
2022/10/12 05:41:53;;;;;;;5.07;2.47;;;3.20;99.90;;;;;;5090846;28;20042;-65
2022/10/12 05:44:19;;;;;;;5.00;2.00;;;3.30;99.90;;;;;;5091001;28;20018;-58
2022/10/12 05:46:45;;;;;;;3.80;2.40;;;3.30;99.90;;;;;;5090436;28;20029;-63
2022/10/12 05:49:10;;;;;;;3.70;2.05;;;3.30;99.90;;;;;;5090645;28;20020;-59
2022/10/12 05:51:37;;;;;;;2.65;1.98;;;3.30;99.90;;;;;;5090483;28;20024;-60
2022/10/12 05:54:03;;;;;;;3.10;1.80;;;3.20;99.90;;;;;;5090070;28;20024;-60
2022/10/12 05:56:29;;;;;;;2.78;2.03;;;3.20;99.90;;;;;;5090602;28;20469;-66
2022/10/12 05:58:54;;;;;;;4.22;1.80;;;3.30;99.90;;;;;;5090355;28;20063;-61
2022/10/12 06:01:20;;;;;;;3.08;2.47;;;3.20;99.90;;;;;;5090098;28;20440;-67
2022/10/12 06:03:46;;;;;;;5.68;2.00;;;3.30;99.90;;;;;;5090527;28;20026;-60
2022/10/12 06:06:11;;;;;;;3.55;2.05;;;3.30;99.90;;;;;;5090487;28;20486;-57
2022/10/12 06:08:37;;;;;;;6.32;3.03;;;3.30;99.90;;;;;;5089387;28;20392;-60
2022/10/12 06:11:03;;;;;;;4.10;2.70;;;3.30;99.90;;;;;;5089179;28;20020;-58
2022/10/12 06:13:29;;;;;;;8.45;3.17;;;3.40;99.90;;;;;;5089987;28;20013;-56
2022/10/12 06:15:54;;;;;;;6.70;3.25;;;3.40;99.90;;;;;;5089800;28;20052;-50
2022/10/12 06:18:20;;;;;;;6.22;3.03;;;3.40;99.90;;;;;;5090241;28;20023;-52
2022/10/12 06:20:53;;;;;;;7.03;3.13;;;3.50;99.90;;;;;;5092957;28;20044;-52
2022/10/12 06:23:19;;;;;;;4.97;3.17;;;3.60;99.90;;;;;;5094137;28;20392;-60
2022/10/12 06:25:46;;;;;;;6.43;3.47;;;3.60;99.90;;;;;;5093543;28;20165;-57
2022/10/12 06:28:13;;;;;;;5.18;2.60;;;3.70;99.90;;;;;;5093145;28;20476;-50
2022/10/12 06:30:39;;;;;;;5.63;2.88;;;3.70;99.90;;;;;;5093658;28;20031;-52
2022/10/12 06:33:05;;;;;;;7.22;2.88;;;3.70;99.90;;;;;;5093885;28;20253;-51
2022/10/12 06:35:31;;;;;;;4.68;2.80;;;3.70;99.90;;;;;;5093369;28;20099;-58
2022/10/12 06:37:57;;;;;;;5.30;3.10;;;3.80;99.90;;;;;;5093255;28;20095;-49
2022/10/12 06:40:23;;;;;;;4.97;2.95;;;3.90;99.90;;;;;;5093615;28;20085;-55
2022/10/12 06:42:49;;;;;;;6.05;3.40;;;4.00;99.90;;;;;;5092874;28;20024;-51
2022/10/12 06:45:15;;;;;;;9.60;3.78;;;4.10;99.90;;;;;;5093770;28;20027;-55
2022/10/12 06:47:41;;;;;;;8.27;3.17;;;4.20;99.90;;;;;;5093121;28;20048;-51
2022/10/12 06:50:08;;;;;;;5.80;3.33;;;4.20;99.90;;;;;;5092937;28;20066;-54
2022/10/12 06:52:33;;;;;;;6.70;4.80;;;4.30;99.90;;;;;;5093504;28;20022;-51
2022/10/12 06:54:59;;;;;;;6.72;4.03;;;4.40;99.90;;;;;;5093073;28;20443;-54
2022/10/12 06:57:24;;;;;;;6.35;3.58;;;4.40;99.90;;;;;;5092881;28;20032;-58
2022/10/12 06:59:50;;;;;;;6.90;4.03;;;4.40;99.90;;;;;;5093110;28;20038;-57
2022/10/12 07:02:16;;;;;;;7.68;4.80;;;4.50;99.90;;;;;;5093193;28;20028;-59
2022/10/12 07:04:41;;;;;;;7.95;4.38;;;4.50;99.90;;;;;;5092611;28;20101;-60
2022/10/12 07:07:07;;;;;;;8.30;4.97;;;4.60;99.90;;;;;;5093150;28;20042;-56
2022/10/12 07:09:33;;;;;;;6.70;3.78;;;4.60;99.90;;;;;;5092886;28;20483;-56
2022/10/12 07:11:58;;;;;;;7.63;4.28;;;4.70;99.90;;;;;;5092120;28;20548;-48
2022/10/12 07:14:24;;;;;;;7.55;3.97;;;4.80;99.90;;;;;;5092873;28;20368;-48
2022/10/12 07:16:50;;;;;;;8.38;4.82;;;4.90;99.90;;;;;;5092188;28;20390;-48
2022/10/12 07:19:16;;;;;;;7.50;4.45;;;5.00;99.90;;;;;;5092705;28;20040;-47
2022/10/12 07:21:42;;;;;;;8.00;4.60;;;5.10;99.90;;;;;;5091264;28;20399;-51
2022/10/12 07:24:11;;;;;;;7.93;4.15;;;5.20;99.90;;;;;;5091890;28;20092;-56
2022/10/12 07:26:36;;;;;;;8.52;4.55;;;5.30;99.90;;;;;;5092270;28;20414;-48
2022/10/12 07:29:02;;;;;;;7.85;4.18;;;5.40;99.90;;;;;;5092406;28;20020;-50
2022/10/12 07:31:27;;;;;;;9.13;4.55;;;5.40;99.90;;;;;;5091759;28;20023;-52
2022/10/12 07:33:54;;;;;;;10.57;3.88;;;5.50;99.90;;;;;;5092349;28;20020;-51
2022/10/12 07:36:19;;;;;;;10.45;5.40;;;5.60;99.90;;;;;;5092566;28;20028;-48
2022/10/12 07:38:47;;;;;;;8.40;4.85;;;5.60;99.90;;;;;;5091665;28;20157;-52
2022/10/12 07:41:13;;;;;;;7.57;4.80;;;5.70;99.90;;;;;;5092250;28;20043;-50
2022/10/12 07:43:38;;;;;;;7.88;4.55;;;5.80;99.90;;;;;;5092313;28;20385;-51
2022/10/12 07:46:04;;;;;;;7.53;5.10;;;5.90;99.90;;;;;;5093656;28;20031;-52
2022/10/12 07:48:30;;;;;;;8.27;4.90;;;6.00;99.90;;;;;;5095656;28;20028;-57
2022/10/12 07:51:05;;;;;;;9.02;4.57;;;6.00;99.90;;;;;;5092517;28;20434;-55
2022/10/12 07:53:33;;;;;;;11.82;4.90;;;6.10;99.90;;;;;;5092027;28;20020;-55
2022/10/12 07:56:00;;;;;;;9.35;4.80;;;6.20;99.90;;;;;;5090835;28;20020;-59
2022/10/12 07:58:25;;;;;;;9.85;5.15;;;6.30;99.90;;;;;;5092043;28;20472;-51
2022/10/12 08:00:51;;;;;;;9.75;5.18;;;6.30;99.90;;;;;;5091340;28;20042;-59
2022/10/12 08:03:17;;;;;;;14.80;6.07;;;6.40;99.90;;;;;;5092169;28;20024;-55
2022/10/12 08:05:42;;;;;;;12.32;6.28;;;6.50;99.90;;;;;;5091892;28;20507;-63
2022/10/12 08:08:08;;;;;;;9.95;6.68;;;6.60;99.90;;;;;;5091628;28;20377;-52
2022/10/12 08:10:34;;;;;;;10.43;5.68;;;6.60;99.90;;;;;;5091891;28;20060;-57
2022/10/12 08:13:00;;;;;;;10.80;6.07;;;6.70;99.90;;;;;;5091960;28;20023;-53
2022/10/12 08:15:26;;;;;;;11.50;6.40;;;6.80;99.90;;;;;;5091617;28;20020;-51
2022/10/12 08:17:51;;;;;;;8.95;5.32;;;6.80;99.90;;;;;;5091612;28;20232;-57
2022/10/12 08:20:17;;;;;;;10.68;5.22;;;6.90;99.90;;;;;;5091198;28;20489;-54
2022/10/12 08:22:43;;;;;;;8.88;5.10;;;6.90;99.90;;;;;;5091721;28;20028;-64
2022/10/12 08:25:08;;;;;;;8.63;5.35;;;6.90;99.90;;;;;;5091832;28;20377;-63
2022/10/12 08:27:34;;;;;;;9.30;5.28;;;7.00;99.90;;;;;;5091379;28;20031;-66
2022/10/12 08:30:00;;;;;;;10.25;5.63;;;7.00;99.90;;;;;;5091915;28;20020;-62
2022/10/12 08:32:26;;;;;;;10.95;5.40;;;7.00;99.90;;;;;;5091666;28;20039;-50
2022/10/12 08:34:51;;;;;;;9.57;5.50;;;7.10;99.90;;;;;;5090755;28;20012;-52
2022/10/12 08:37:17;;;;;;;32.75;18.92;;;7.20;99.90;;;;;;5089957;28;20376;-49
2022/10/12 08:39:43;;;;;;;24.95;15.15;;;7.30;99.90;;;;;;5091153;28;20016;-57
2022/10/12 08:42:27;;;;;;;19.77;12.18;;;7.50;99.90;;;;;;5090229;28;20068;-51
2022/10/12 08:45:20;;;;;;;18.02;9.35;;;7.70;99.90;;;;;;5091114;28;20128;-50
2022/10/12 08:47:51;;;;;;;23.17;13.50;;;7.90;99.90;;;;;;5090881;28;20451;-50
2022/10/12 08:50:32;;;;;;;21.83;10.55;;;8.10;99.90;;;;;;5090582;28;20399;-53
2022/10/12 08:53:14;;;;;;;22.08;10.77;;;8.40;99.90;;;;;;5090882;28;20032;-49
2022/10/12 08:55:42;;;;;;;;;;;8.60;99.90;;;;;;5090790;28;20150;-57
2022/10/12 08:58:24;;;;;;;20.35;10.20;;;8.80;99.90;;;;;;5091053;28;19911;-50
2022/10/12 09:00:56;;;;;;;18.67;10.15;;;9.10;99.90;;;;;;5090876;28;20036;-50
2022/10/12 09:03:26;;;;;;;;;;;9.20;99.90;;;;;;5091052;28;20020;-53
2022/10/12 09:06:24;;;;;;;15.88;8.43;;;9.40;99.90;;;;;;5090979;28;19904;-49
2022/10/12 09:09:12;;;;;;;17.20;8.27;;;9.40;99.90;;;;;;5082142;28;20032;-53
2022/10/12 09:11:56;;;;;;;14.93;9.18;;;9.50;99.90;;;;;;5090132;28;20030;-53
2022/10/12 09:14:26;;;;;;;12.48;8.65;;;9.50;99.90;;;;;;5091019;28;20824;-52
2022/10/12 09:16:55;;;;;;;17.42;7.57;;;9.50;99.90;;;;;;5089977;28;20536;-49
2022/10/12 09:19:29;;;;;;;14.80;7.53;;;9.50;99.90;;;;;;5090641;28;20051;-49
2022/10/12 09:21:56;;;;;;;15.95;8.20;;;9.40;99.90;;;;;;5090280;28;20036;-51
2022/10/12 09:24:25;;;;;;;16.70;9.27;;;9.40;99.90;;;;;;5090055;28;20020;-52
2022/10/12 09:26:58;;;;;;;19.17;10.05;;;9.30;99.90;;;;;;5083282;28;20127;-47
2022/10/12 09:29:28;;;;;;;19.80;10.63;;;9.40;99.90;;;;;;5088975;28;20047;-52
2022/10/12 09:32:03;;;;;;;19.58;11.15;;;9.40;99.90;;;;;;5088183;28;20036;-49
2022/10/12 09:34:29;;;;;;;18.58;10.32;;;9.40;99.90;;;;;;5089005;28;20032;-52
2022/10/12 09:36:55;;;;;;;16.30;9.70;;;9.40;99.90;;;;;;5088670;28;20020;-49
2022/10/12 09:39:31;;;;;;;18.65;9.40;;;9.40;99.90;;;;;;5089632;28;20460;-51
2022/10/12 09:41:56;;;;;;;21.77;10.43;;;9.40;99.90;;;;;;5089887;28;20489;-49
2022/10/12 09:44:34;;;;;;;22.10;10.90;;;9.50;99.90;;;;;;5090220;28;20020;-55
2022/10/12 09:47:30;;;;;;;26.25;12.18;;;9.50;99.90;;;;;;5079689;28;20021;-60
2022/10/12 09:49:59;;;;;;;24.85;12.85;;;9.60;99.90;;;;;;5086270;28;20331;-54
2022/10/12 09:52:30;;;;;;;19.73;11.38;;;9.60;99.90;;;;;;5088670;28;20029;-54
2022/10/12 09:55:00;;;;;;;21.23;11.15;;;9.70;99.90;;;;;;5092359;28;20524;-53
2022/10/12 09:57:35;;;;;;;17.48;10.52;;;9.70;99.90;;;;;;5092415;28;20110;-53
2022/10/12 10:00:07;;;;;;;17.88;11.05;;;9.80;99.90;;;;;;5092978;28;20020;-58
2022/10/12 10:02:47;;;;;;;22.83;13.77;;;9.70;99.90;;;;;;5093431;28;20093;-53
2022/10/12 10:05:24;;;;;;;28.00;13.38;;;9.90;99.90;;;;;;5093322;28;20073;-64
2022/10/12 10:07:50;;;;;;;19.02;11.43;;;9.90;99.90;;;;;;5092020;28;20408;-61
2022/10/12 10:10:20;;;;;;;21.63;11.77;;;10.00;99.90;;;;;;5093535;28;20511;-63
2022/10/12 10:13:00;;;;;;;19.52;11.30;;;10.00;99.90;;;;;;5092416;28;20035;-64
2022/10/12 10:15:33;;;;;;;22.65;12.85;;;10.10;99.90;;;;;;5093206;28;20034;-53
2022/10/12 10:18:17;;;;;;;21.45;11.75;;;10.10;99.90;;;;;;5092291;28;20633;-58
2022/10/12 10:20:55;;;;;;;17.48;10.80;;;10.10;99.90;;;;;;5092122;28;20036;-60
2022/10/12 10:23:25;;;;;;;21.42;11.82;;;10.20;99.90;;;;;;5093647;28;20036;-62
2022/10/12 10:26:03;;;;;;;19.88;12.95;;;10.20;99.90;;;;;;5093099;28;20024;-61
2022/10/12 10:28:33;;;;;;;20.88;11.75;;;10.30;99.90;;;;;;5091731;28;20032;-58
2022/10/12 10:31:24;;;;;;;21.50;10.95;;;10.40;99.90;;;;;;5092110;28;20107;-63
2022/10/12 10:34:14;;;;;;;20.35;11.02;;;10.40;99.90;;;;;;5091890;28;20020;-60
2022/10/12 10:36:45;;;;;;;23.35;12.88;;;10.50;99.90;;;;;;5090738;28;20086;-62
2022/10/12 10:39:24;;;;;;;18.77;11.52;;;10.50;99.90;;;;;;5092317;28;20129;-59
2022/10/12 10:41:52;;;;;;;20.38;13.35;;;10.50;99.90;;;;;;5092017;28;20032;-52
2022/10/12 10:44:25;;;;;;;29.52;14.20;;;10.60;99.90;;;;;;5092558;28;20155;-58
2022/10/12 10:46:52;;;;;;;20.65;14.07;;;10.70;99.90;;;;;;5091623;28;20089;-54
2022/10/12 10:49:44;;;;;;;28.98;14.57;;;10.80;99.90;;;;;;5091103;28;20488;-53
2022/10/12 10:52:29;;;;;;;17.77;10.93;;;10.90;99.90;;;;;;5092272;28;20030;-53
2022/10/12 10:55:39;;;;;;;19.58;11.23;;;11.00;99.90;;;;;;5091508;28;20027;-53
2022/10/12 10:58:11;;;;;;;22.33;12.98;;;11.00;99.90;;;;;;5091077;28;20024;-51
2022/10/12 11:00:41;;;;;;;21.00;11.75;;;11.10;99.90;;;;;;5090814;28;20032;-49
2022/10/12 11:03:30;;;;;;;17.92;11.00;;;11.20;99.90;;;;;;5091271;28;20020;-54
2022/10/12 11:06:03;;;;;;;19.90;11.95;;;11.20;99.90;;;;;;5089868;28;20048;-54
2022/10/12 11:08:29;;;;;;;23.77;12.50;;;11.30;99.90;;;;;;5090240;28;20024;-54
2022/10/12 11:11:11;;;;;;;23.33;11.05;;;11.30;99.90;;;;;;5090736;28;20181;-55
2022/10/12 11:13:54;;;;;;;21.13;10.10;;;11.40;99.90;;;;;;5091393;28;20032;-52
2022/10/12 11:16:43;;;;;;;22.15;11.52;;;11.50;99.90;;;;;;5090361;28;20103;-54
2022/10/12 11:19:30;;;;;;;23.65;12.73;;;11.60;99.90;;;;;;5091215;28;20433;-53
2022/10/12 11:22:01;;;;;;;19.83;10.82;;;11.70;99.90;;;;;;5090552;28;20031;-51
2022/10/12 11:24:43;;;;;;;25.85;12.43;;;11.70;99.90;;;;;;5091599;28;20039;-52
2022/10/12 11:27:20;;;;;;;22.17;12.38;;;11.80;99.90;;;;;;5090266;28;20030;-51
2022/10/12 11:29:46;;;;;;;21.42;13.63;;;11.80;99.90;;;;;;5090233;28;20032;-51
2022/10/12 11:32:25;;;;;;;20.42;11.20;;;11.90;99.90;;;;;;5091394;28;20027;-49
2022/10/12 11:35:01;;;;;;;19.15;11.40;;;12.00;99.90;;;;;;5091173;28;20333;-53
2022/10/12 11:37:51;;;;;;;19.25;11.30;;;12.10;99.90;;;;;;5090318;28;20024;-51
2022/10/12 11:40:22;;;;;;;19.90;11.38;;;12.20;99.90;;;;;;5091555;28;20024;-47
2022/10/12 11:42:50;;;;;;;20.83;12.30;;;12.20;99.90;;;;;;5090304;28;20028;-46
2022/10/12 11:45:27;;;;;;;23.60;11.52;;;12.30;99.90;;;;;;5090903;28;20043;-50
2022/10/12 11:48:03;;;;;;;19.30;10.32;;;12.30;99.90;;;;;;5090543;28;20020;-52
2022/10/12 11:50:37;;;;;;;18.17;10.23;;;12.40;99.90;;;;;;5089811;28;20024;-49
2022/10/12 11:53:13;;;;;;;18.48;9.45;;;12.40;99.60;;;;;;5091000;28;20476;-52
2022/10/12 11:56:10;;;;;;;22.20;9.77;;;12.40;99.20;;;;;;5090882;28;20024;-50
2022/10/12 11:58:43;;;;;;;22.77;9.93;;;12.40;99.20;;;;;;5066101;28;20176;-48
2022/10/12 12:01:17;;;;;;;16.48;10.30;;;12.40;99.20;;;;;;5091051;28;20040;-54
2022/10/12 12:03:43;;;;;;;17.60;9.63;;;12.50;99.10;;;;;;5090522;28;20024;-52
2022/10/12 12:06:43;;;;;;;14.45;9.18;;;12.50;98.90;;;;;;5091085;28;20417;-54
2022/10/12 12:09:31;;;;;;;18.27;9.07;;;12.60;98.80;;;;;;5090668;28;20017;-53
2022/10/12 12:12:24;;;;;;;20.27;10.00;;;12.60;98.70;;;;;;5089175;28;20026;-56
2022/10/12 12:14:52;;;;;;;17.77;9.93;;;12.60;98.30;;;;;;5090550;28;20035;-59
2022/10/12 12:17:18;;;;;;;15.02;8.82;;;12.60;98.30;;;;;;5090173;28;20127;-49
2022/10/12 12:19:44;;;;;;;21.42;11.57;;;12.60;98.20;;;;;;5069900;28;20033;-59
2022/10/12 12:22:34;;;;;;;18.20;9.88;;;12.60;97.90;;;;;;5070974;28;20032;-60
2022/10/12 12:25:09;;;;;;;16.85;8.85;;;12.70;98.20;;;;;;5070651;28;20028;-57
2022/10/12 12:28:04;;;;;;;13.82;7.78;;;12.60;97.90;;;;;;5071520;28;20135;-62
2022/10/12 12:30:36;;;;;;;15.07;7.60;;;12.70;98.00;;;;;;5071612;28;20028;-66
2022/10/12 12:33:20;;;;;;;12.88;7.93;;;12.70;97.80;;;;;;5070638;28;20469;-64
2022/10/12 12:36:02;;;;;;;17.38;6.95;;;12.80;97.70;;;;;;5071087;28;20025;-60
2022/10/12 12:38:29;;;;;;;13.25;6.80;;;12.90;97.50;;;;;;5071199;28;20034;-50
2022/10/12 12:40:57;;;;;;;11.77;5.63;;;13.00;97.20;;;;;;5070740;28;20066;-61
2022/10/12 12:43:28;;;;;;;10.95;5.20;;;13.00;96.60;;;;;;5071320;28;20091;-61
2022/10/12 12:45:58;;;;;;;16.65;5.75;;;13.20;96.30;;;;;;5070029;28;20020;-61
2022/10/12 12:48:41;;;;;;;14.55;5.55;;;13.20;96.20;;;;;;5071280;28;20016;-59
2022/10/12 12:51:11;;;;;;;10.52;5.72;;;13.30;96.10;;;;;;5070787;28;20094;-58
2022/10/12 12:54:00;;;;;;;9.95;6.07;;;13.40;95.60;;;;;;5070107;28;20066;-60
2022/10/12 12:56:34;;;;;;;11.32;6.38;;;13.60;95.20;;;;;;5070852;28;20025;-62
2022/10/12 12:59:29;;;;;;;11.70;6.18;;;13.80;94.80;;;;;;5070804;28;20399;-61
2022/10/12 13:02:13;;;;;;;16.73;6.20;;;13.90;94.40;;;;;;5070089;28;20036;-66
2022/10/12 13:04:38;;;;;;;9.88;5.78;;;14.00;94.20;;;;;;5070549;28;20025;-55
2022/10/12 13:07:25;;;;;;;11.88;5.57;;;14.00;93.80;;;;;;5070091;28;20032;-56
2022/10/12 13:10:15;;;;;;;13.02;6.65;;;14.10;93.60;;;;;;5070450;28;20028;-49